createdAt,value
2023-02-22T00:02:32.950Z,99053.67
2023-02-22T00:08:55.143Z,99059.73
2023-02-22T00:11:34.633Z,99058.48
2023-02-22T00:14:12.772Z,99062.59
2023-02-22T00:16:47.151Z,99064.90
2023-02-22T00:19:37.125Z,99066.02
2023-02-22T00:22:20.601Z,99066.23
2023-02-22T00:25:18.058Z,99069.30
2023-02-22T00:27:49.558Z,99068.97
2023-02-22T00:30:31.319Z,99070.91
2023-02-22T00:33:15.158Z,99070.52
2023-02-22T00:35:47.319Z,99071.49
2023-02-22T00:38:23.946Z,99072.73
2023-02-22T00:41:08.507Z,99074.06
2023-02-22T00:43:56.512Z,99070.80
2023-02-22T00:46:26.952Z,99069.11
2023-02-22T00:48:59.878Z,99072.14
2023-02-22T00:51:51.014Z,99073.73
2023-02-22T00:54:25.035Z,99076.91
2023-02-22T00:57:01.441Z,99076.70
2023-02-22T00:59:35.766Z,99076.94
2023-02-22T01:02:11.605Z,99075.48
2023-02-22T01:04:53.416Z,99078.49
2023-02-22T01:07:21.776Z,99080.55
2023-02-22T01:09:52.463Z,99081.73
2023-02-22T01:12:36.250Z,99081.48
2023-02-22T01:15:30.536Z,99086.59
2023-02-22T01:18:07.342Z,99091.20
2023-02-22T01:20:36.458Z,99088.14
2023-02-22T01:23:10.771Z,99088.71
2023-02-22T01:25:41.578Z,99087.94
2023-02-22T01:28:11.241Z,99082.86
2023-02-22T01:30:41.752Z,99080.95
2023-02-22T01:33:29.590Z,99079.02
2023-02-22T01:36:28.149Z,99076.94
2023-02-22T01:38:56.717Z,99075.88
2023-02-22T01:41:25.127Z,99076.75
2023-02-22T01:44:29.496Z,99077.48
2023-02-22T01:47:03.984Z,99077.36
2023-02-22T01:55:38.011Z,99079.86
2023-02-22T01:58:13.042Z,99084.17
2023-02-22T02:00:42.074Z,99083.95
2023-02-22T02:03:17.846Z,99085.52
2023-02-22T02:05:46.330Z,99085.61
2023-02-22T02:08:26.000Z,99085.52
2023-02-22T02:10:58.398Z,99085.39
2023-02-22T02:13:27.663Z,99081.98
2023-02-22T02:15:56.718Z,99083.89
2023-02-22T02:18:32.803Z,99082.54
2023-02-22T02:21:25.825Z,99086.64
2023-02-22T02:24:18.014Z,99087.10
2023-02-22T02:27:23.360Z,99084.68
2023-02-22T02:30:14.418Z,99085.14
2023-02-22T02:33:09.269Z,99086.15
2023-02-22T02:35:49.134Z,99084.98
2023-02-22T02:38:39.842Z,99087.82
2023-02-22T02:41:17.803Z,99087.58
2023-02-22T02:43:55.941Z,99084.86
2023-02-22T02:46:32.547Z,99083.41
2023-02-22T02:49:16.047Z,99084.41
2023-02-22T02:51:52.294Z,99089.64
2023-02-22T02:54:23.827Z,99084.52
2023-02-22T02:56:58.232Z,99089.28
2023-02-22T02:59:30.043Z,99089.64
2023-02-22T03:02:26.135Z,99088.65
2023-02-22T03:05:41.403Z,99090.13
2023-02-22T03:08:28.476Z,99090.64
2023-02-22T03:11:17.243Z,99091.49
2023-02-22T03:14:12.243Z,99091.30
2023-02-22T03:16:57.184Z,99096.16
2023-02-22T03:19:48.836Z,99096.86
2023-02-22T03:22:20.575Z,99094.41
2023-02-22T03:25:09.264Z,99095.91
2023-02-22T03:28:02.648Z,99098.04
2023-02-22T03:30:56.220Z,99099.50
2023-02-22T03:33:41.545Z,99097.33
2023-02-22T03:36:14.502Z,99100.80
2023-02-22T03:38:46.287Z,99101.61
2023-02-22T03:41:25.306Z,99099.16
2023-02-22T03:44:06.402Z,99101.75
2023-02-22T03:46:38.932Z,99106.59
2023-02-22T03:49:25.417Z,99105.62
2023-02-22T03:51:55.130Z,99104.83
2023-02-22T03:54:24.095Z,99106.52
2023-02-22T03:56:57.606Z,99110.40
2023-02-22T03:59:28.192Z,99109.55
2023-02-22T04:01:58.205Z,99111.11
2023-02-22T04:04:27.215Z,99113.41
2023-02-22T04:06:55.830Z,99112.24
2023-02-22T04:09:25.365Z,99114.80
2023-02-22T04:11:54.002Z,99116.56
2023-02-22T04:14:23.907Z,99118.66
2023-02-22T04:16:52.745Z,99119.67
2023-02-22T04:19:21.791Z,99118.05
2023-02-22T04:21:51.117Z,99119.79
2023-02-22T04:24:24.463Z,99118.25
2023-02-22T04:26:53.264Z,99120.26
2023-02-22T04:29:23.368Z,99128.29
2023-02-22T04:31:51.989Z,99126.80
2023-02-22T04:34:20.727Z,99130.27
2023-02-22T04:36:49.787Z,99125.52
2023-02-22T04:39:18.482Z,99126.88
2023-02-22T04:41:47.909Z,99125.40
2023-02-22T04:44:16.591Z,99121.86
2023-02-22T04:46:47.260Z,99120.89
2023-02-22T04:49:17.899Z,99123.20
2023-02-22T04:51:48.570Z,99123.69
2023-02-22T04:54:19.276Z,99125.79
2023-02-22T04:56:49.075Z,99123.36
2023-02-22T04:59:19.989Z,99123.73
2023-02-22T05:01:55.335Z,99125.13
2023-02-22T05:04:23.804Z,99127.33
2023-02-22T05:06:54.139Z,99129.88
2023-02-22T05:09:23.552Z,99130.61
2023-02-22T05:11:51.946Z,99130.98
2023-02-22T05:14:20.549Z,99129.70
2023-02-22T05:16:57.287Z,99130.98
2023-02-22T05:19:25.766Z,99134.71
2023-02-22T05:21:56.446Z,99139.29
2023-02-22T05:24:24.950Z,99140.67
2023-02-22T05:26:53.387Z,99141.79
2023-02-22T05:29:21.820Z,99140.67
2023-02-22T05:31:50.233Z,99140.30
2023-02-22T05:34:18.675Z,99145.20
2023-02-22T05:36:47.122Z,99146.65
2023-02-22T05:39:15.650Z,99145.16
2023-02-22T05:41:44.010Z,99147.25
2023-02-22T05:44:12.546Z,99149.30
2023-02-22T05:46:40.931Z,99152.92
2023-02-22T05:49:09.254Z,99156.23
2023-02-22T05:51:37.722Z,99159.73
2023-02-22T05:54:09.215Z,99163.48
2023-02-22T05:56:37.683Z,99159.76
2023-02-22T05:59:06.099Z,99166.64
2023-02-22T06:01:34.431Z,99165.80
2023-02-22T06:04:03.209Z,99169.61
2023-02-22T06:06:31.605Z,99170.62
2023-02-22T06:09:00.031Z,99174.15
2023-02-22T06:11:29.081Z,99179.77
2023-02-22T06:17:55.845Z,99186.38
2023-02-22T06:21:35.177Z,99189.00
2023-02-22T06:24:17.534Z,99191.31
2023-02-22T06:31:03.515Z,99204.93
2023-02-22T06:33:48.489Z,99207.50
2023-02-22T06:36:18.244Z,99206.41
2023-02-22T06:38:55.034Z,99208.13
2023-02-22T06:41:30.880Z,99207.81
2023-02-22T06:44:37.886Z,99205.48
2023-02-22T06:47:12.799Z,99205.88
2023-02-22T06:49:42.115Z,99208.58
2023-02-22T06:52:20.655Z,99212.98
2023-02-22T06:55:08.221Z,99217.02
2023-02-22T06:59:53.002Z,99221.94
2023-02-22T07:08:25.844Z,99222.95
2023-02-22T07:11:40.992Z,99223.77
2023-02-22T07:14:49.090Z,99227.92
2023-02-22T07:24:12.508Z,99221.78
2023-02-22T07:27:21.731Z,99222.45
2023-02-22T07:30:54.661Z,99226.73
2023-02-22T07:33:38.649Z,99225.13
2023-02-22T07:36:37.551Z,99223.98
2023-02-22T07:39:08.885Z,99224.36
2023-02-22T07:41:38.255Z,99224.92
2023-02-22T07:44:16.218Z,99222.71
2023-02-22T07:46:49.026Z,99222.73
2023-02-22T07:49:17.673Z,99224.48
2023-02-22T07:51:46.187Z,99222.48
2023-02-22T07:54:14.529Z,99226.52
2023-02-22T07:56:48.057Z,99227.73
2023-02-22T07:59:16.572Z,99227.45
2023-02-22T08:01:44.953Z,99232.40
2023-02-22T08:04:13.317Z,99231.96
2023-02-22T08:06:41.665Z,99233.20
2023-02-22T08:09:10.064Z,99233.04
2023-02-22T08:11:38.331Z,99231.83
2023-02-22T08:14:06.645Z,99232.08
2023-02-22T08:16:39.112Z,99235.07
2023-02-22T08:19:07.775Z,99234.79
2023-02-22T08:21:36.540Z,99238.77
2023-02-22T08:24:05.354Z,99233.16
2023-02-22T08:26:33.755Z,99234.98
2023-02-22T08:29:33.844Z,99235.15
2023-02-22T08:32:05.603Z,99233.73
2023-02-22T08:34:34.050Z,99233.73
2023-02-22T08:37:02.304Z,99238.66
2023-02-22T08:39:30.685Z,99239.86
2023-02-22T08:41:59.056Z,99238.95
2023-02-22T08:44:27.485Z,99242.45
2023-02-22T08:46:55.859Z,99241.90
2023-02-22T08:49:24.663Z,99245.40
2023-02-22T08:52:06.629Z,99241.09
2023-02-22T08:54:35.822Z,99243.05
2023-02-22T08:57:16.376Z,99244.39
2023-02-22T09:00:52.116Z,99244.83
2023-02-22T09:03:21.718Z,99247.56
2023-02-22T09:05:50.335Z,99250.27
2023-02-22T09:08:18.909Z,99248.98
2023-02-22T09:10:49.892Z,99248.67
2023-02-22T09:13:21.230Z,99251.61
2023-02-22T09:16:10.455Z,99254.41
2023-02-22T09:19:04.206Z,99254.13
2023-02-22T09:24:57.004Z,99248.48
2023-02-22T09:27:30.065Z,99251.69
2023-02-22T09:30:32.327Z,99246.89
2023-02-22T09:33:54.194Z,99246.40
2023-02-22T09:36:23.631Z,99246.23
2023-02-22T09:38:54.437Z,99247.21
2023-02-22T09:41:36.300Z,99245.48
2023-02-22T09:44:23.321Z,99246.79
2023-02-22T09:46:54.907Z,99247.44
2023-02-22T09:49:28.558Z,99243.47
2023-02-22T09:51:59.599Z,99243.87
2023-02-22T09:54:52.054Z,99245.48
2023-02-22T09:57:35.994Z,99246.59
2023-02-22T10:00:13.928Z,99245.08
2023-02-22T10:03:00.140Z,99243.64
2023-02-22T10:05:38.259Z,99247.39
2023-02-22T10:08:13.676Z,99243.88
2023-02-22T10:10:52.587Z,99242.79
2023-02-22T10:13:56.128Z,99235.24
2023-02-22T10:16:37.454Z,99227.84
2023-02-22T10:19:20.991Z,99226.23
2023-02-22T10:22:17.010Z,99225.00
2023-02-22T10:24:57.574Z,99224.50
2023-02-22T10:27:44.300Z,99220.71
2023-02-22T10:30:29.237Z,99221.22
2023-02-22T10:33:10.521Z,99223.04
2023-02-22T10:35:41.417Z,99225.46
2023-02-22T10:38:23.695Z,99222.08
2023-02-22T10:41:04.377Z,99219.48
2023-02-22T10:43:33.479Z,99219.65
2023-02-22T10:46:07.376Z,99221.05
2023-02-22T10:48:40.322Z,99219.70
2023-02-22T10:51:10.596Z,99221.02
2023-02-22T10:53:40.189Z,99218.10
2023-02-22T10:56:18.604Z,99218.62
2023-02-22T10:58:52.952Z,99218.27
2023-02-22T11:01:31.923Z,99219.81
2023-02-22T11:04:17.846Z,99214.95
2023-02-22T11:07:08.446Z,99216.66
2023-02-22T11:09:52.685Z,99214.50
2023-02-22T11:12:44.860Z,99211.48
2023-02-22T11:15:27.876Z,99205.44
2023-02-22T11:18:01.509Z,99206.39
2023-02-22T11:20:39.377Z,99209.17
2023-02-22T11:23:08.568Z,99212.02
2023-02-22T11:25:40.235Z,99212.25
2023-02-22T11:28:15.244Z,99214.96
2023-02-22T11:30:49.912Z,99214.64
2023-02-22T11:33:24.044Z,99217.65
2023-02-22T11:35:54.000Z,99215.12
2023-02-22T11:38:25.526Z,99214.27
2023-02-22T11:41:19.200Z,99214.92
2023-02-22T11:43:50.915Z,99211.27
2023-02-22T11:46:26.488Z,99216.40
2023-02-22T11:49:13.293Z,99211.33
2023-02-22T11:52:14.533Z,99208.09
2023-02-22T11:55:32.613Z,99200.95
2023-02-22T11:58:26.697Z,99205.92
2023-02-22T12:01:43.556Z,99207.73
2023-02-22T12:04:16.005Z,99208.83
2023-02-22T12:06:51.735Z,99206.31
2023-02-22T12:09:34.245Z,99205.17
2023-02-22T12:12:43.748Z,99202.30
2023-02-22T12:15:27.848Z,99196.98
2023-02-22T12:18:34.864Z,99190.53
2023-02-22T12:21:25.053Z,99192.18
2023-02-22T12:24:04.718Z,99192.20
2023-02-22T12:26:42.166Z,99192.19
2023-02-22T12:29:26.562Z,99187.58
2023-02-22T12:32:09.349Z,99187.98
2023-02-22T12:34:50.702Z,99188.08
2023-02-22T12:37:47.995Z,99189.52
2023-02-22T12:41:25.339Z,99192.49
2023-02-22T12:43:42.348Z,99193.92
2023-02-22T12:46:19.368Z,99195.23
2023-02-22T12:49:26.209Z,99192.38
2023-02-22T12:52:21.172Z,99189.58
2023-02-22T12:55:04.810Z,99193.34
2023-02-22T12:58:05.017Z,99194.14
2023-02-22T13:01:01.924Z,99194.18
2023-02-22T13:03:44.054Z,99189.98
2023-02-22T13:06:33.065Z,99191.54
2023-02-22T13:09:24.556Z,99189.86
2023-02-22T13:12:12.525Z,99190.19
2023-02-22T13:14:46.974Z,99189.84
2023-02-22T13:17:40.206Z,99194.08
2023-02-22T13:20:18.585Z,99190.95
2023-02-22T13:23:14.295Z,99187.95
2023-02-22T13:26:08.358Z,99190.08
2023-02-22T13:28:44.077Z,99194.04
2023-02-22T13:31:46.372Z,99190.43
2023-02-22T13:34:59.230Z,99189.23
2023-02-22T13:37:48.027Z,99189.64
2023-02-22T13:40:41.396Z,99189.75
2023-02-22T13:43:18.745Z,99190.21
2023-02-22T13:46:12.917Z,99193.52
2023-02-22T13:49:07.182Z,99195.74
2023-02-22T13:51:59.008Z,99197.91
2023-02-22T13:55:11.424Z,99200.61
2023-02-22T13:57:39.715Z,99197.70
2023-02-22T14:00:28.615Z,99199.96
2023-02-22T14:03:15.548Z,99197.83
2023-02-22T14:05:47.046Z,99198.61
2023-02-22T14:08:25.372Z,99195.31
2023-02-22T14:11:02.896Z,99198.30
2023-02-22T14:14:01.555Z,99196.70
2023-02-22T14:16:31.851Z,99196.66
2023-02-22T14:19:06.797Z,99197.08
2023-02-22T14:21:35.928Z,99199.75
2023-02-22T14:24:13.586Z,99198.88
2023-02-22T14:26:56.384Z,99198.77
2023-02-22T14:29:25.752Z,99198.98
2023-02-22T14:32:10.068Z,99198.41
2023-02-22T14:34:49.535Z,99198.50
2023-02-22T14:37:25.729Z,99197.70
2023-02-22T14:40:13.009Z,99198.54
2023-02-22T14:42:57.833Z,99202.42
2023-02-22T14:45:34.985Z,99200.98
2023-02-22T14:48:25.573Z,99201.20
2023-02-22T14:51:15.639Z,99202.02
2023-02-22T14:54:10.086Z,99201.31
2023-02-22T14:56:49.231Z,99201.54
2023-02-22T14:59:21.474Z,99205.39
2023-02-22T15:02:05.704Z,99204.42
2023-02-22T15:04:38.379Z,99205.79
2023-02-22T15:07:31.016Z,99205.47
2023-02-22T15:10:43.804Z,99209.73
2023-02-22T15:13:34.490Z,99208.31
2023-02-22T15:16:08.516Z,99208.30
2023-02-22T15:18:50.057Z,99209.15
2023-02-22T15:21:25.381Z,99206.69
2023-02-22T15:24:01.436Z,99208.98
2023-02-22T15:26:35.494Z,99214.86
2023-02-22T15:29:23.437Z,99216.72
2023-02-22T15:31:56.699Z,99214.90
2023-02-22T15:34:30.306Z,99214.63
2023-02-22T15:37:19.213Z,99219.82
2023-02-22T15:39:47.574Z,99219.54
2023-02-22T15:42:23.297Z,99218.62
2023-02-22T15:44:54.877Z,99215.25
2023-02-22T15:47:27.439Z,99214.19
2023-02-22T15:50:21.723Z,99213.95
2023-02-22T15:53:03.452Z,99209.48
2023-02-22T15:55:36.169Z,99217.09
2023-02-22T15:58:17.181Z,99216.89
2023-02-22T16:01:02.390Z,99219.52
2023-02-22T16:03:45.833Z,99218.98
2023-02-22T16:06:39.972Z,99220.39
2023-02-22T16:09:13.201Z,99225.66
2023-02-22T16:11:47.408Z,99228.14
2023-02-22T16:14:34.570Z,99233.04
2023-02-22T16:17:31.213Z,99234.09
2023-02-22T16:20:21.729Z,99238.33
2023-02-22T16:22:50.217Z,99241.11
2023-02-22T16:25:18.660Z,99246.13
2023-02-22T16:27:52.797Z,99248.89
2023-02-22T16:30:34.279Z,99251.46
2023-02-22T16:33:17.307Z,99253.59
2023-02-22T16:35:52.614Z,99257.48
2023-02-22T16:38:21.286Z,99257.48
2023-02-22T16:40:54.789Z,99259.79
2023-02-22T16:43:28.177Z,99263.33
2023-02-22T16:45:56.626Z,99263.70
2023-02-22T16:48:27.457Z,99266.39
2023-02-22T16:51:00.362Z,99272.63
2023-02-22T16:53:32.463Z,99274.04
2023-02-22T16:56:05.261Z,99274.01
2023-02-22T16:58:37.422Z,99272.98
2023-02-22T17:01:06.361Z,99273.27
2023-02-22T17:03:34.747Z,99269.08
2023-02-22T17:06:03.209Z,99271.71
2023-02-22T17:08:32.688Z,99271.70
2023-02-22T17:11:01.147Z,99274.92
2023-02-22T17:13:29.957Z,99276.17
2023-02-22T17:15:58.380Z,99272.50
2023-02-22T17:18:34.197Z,99276.85
2023-02-22T17:21:03.600Z,99279.81
2023-02-22T17:23:32.099Z,99279.65
2023-02-22T17:26:04.236Z,99281.89
2023-02-22T17:28:33.811Z,99281.77
2023-02-22T17:31:02.482Z,99285.48
2023-02-22T17:33:35.098Z,99281.32
2023-02-22T17:36:05.397Z,99281.28
2023-02-22T17:38:34.824Z,99279.40
2023-02-22T17:41:03.800Z,99278.91
2023-02-22T17:43:32.279Z,99278.30
2023-02-22T17:46:01.001Z,99281.48
2023-02-22T17:48:54.205Z,99280.16
2023-02-22T17:51:55.894Z,99275.98
2023-02-22T17:54:42.944Z,99276.86
2023-02-22T17:58:06.807Z,99278.80
2023-02-22T18:04:15.702Z,99277.45
2023-02-22T18:06:57.862Z,99276.85
2023-02-22T18:09:42.529Z,99278.46
2023-02-22T18:12:15.147Z,99279.11
2023-02-22T18:15:15.716Z,99280.43
2023-02-22T18:37:20.001Z,99281.03
2023-02-22T18:39:54.725Z,99284.86
2023-02-22T18:42:26.658Z,99284.05
2023-02-22T18:48:05.485Z,99280.80
2023-02-22T18:50:46.656Z,99281.68
2023-02-22T18:53:16.890Z,99281.77
2023-02-22T18:55:45.855Z,99284.69
2023-02-22T18:58:46.870Z,99280.31
2023-02-22T19:01:22.174Z,99278.56
2023-02-22T19:03:57.686Z,99277.64
2023-02-22T19:06:28.413Z,99277.14
2023-02-22T19:09:33.009Z,99280.20
2023-02-22T19:12:02.407Z,99284.67
2023-02-22T19:14:30.129Z,99286.21
2023-02-22T19:17:03.605Z,99285.66
2023-02-22T19:19:42.009Z,99284.47
2023-02-22T19:22:39.325Z,99281.02
2023-02-22T19:25:30.958Z,99283.18
2023-02-22T19:28:12.357Z,99284.67
2023-02-22T19:30:41.838Z,99285.13
2023-02-22T19:33:17.720Z,99288.14
2023-02-22T19:35:51.881Z,99288.31
2023-02-22T19:38:28.967Z,99288.83
2023-02-22T19:54:00.896Z,99313.23
2023-02-22T19:57:10.834Z,99315.83
2023-02-22T19:59:40.607Z,99316.42
2023-02-22T20:02:11.962Z,99320.27
2023-02-22T20:04:49.610Z,99322.80
2023-02-22T20:07:32.420Z,99321.44
2023-02-22T20:10:12.849Z,99320.31
2023-02-22T20:12:41.184Z,99323.41
2023-02-22T20:15:14.071Z,99323.94
2023-02-22T20:17:42.536Z,99320.05
2023-02-22T20:20:12.476Z,99321.73
2023-02-22T20:22:40.138Z,99320.85
2023-02-22T20:25:07.746Z,99324.20
2023-02-22T20:27:35.288Z,99323.59
2023-02-22T20:30:03.531Z,99325.06
2023-02-22T20:32:32.991Z,99327.19
2023-02-22T20:35:01.118Z,99325.48
2023-02-22T20:37:30.990Z,99323.63
2023-02-22T20:39:59.771Z,99322.65
2023-02-22T20:42:27.141Z,99323.86
2023-02-22T20:44:54.260Z,99322.30
2023-02-22T20:47:21.379Z,99329.23
2023-02-22T20:49:48.696Z,99328.65
2023-02-22T20:52:18.606Z,99330.18
2023-02-22T20:54:47.859Z,99327.39
2023-02-22T20:57:15.211Z,99332.38
2023-02-22T20:59:43.721Z,99331.07
2023-02-22T21:02:10.820Z,99332.95
2023-02-22T21:04:37.949Z,99332.75
2023-02-22T21:07:04.945Z,99332.58
2023-02-22T21:09:33.835Z,99332.20
2023-02-22T21:12:00.942Z,99331.23
2023-02-22T21:14:29.499Z,99330.27
2023-02-22T21:16:58.634Z,99333.30
2023-02-22T21:19:26.530Z,99334.11
2023-02-22T21:21:56.052Z,99335.42
2023-02-22T21:24:26.378Z,99333.41
2023-02-22T21:26:57.696Z,99337.55
2023-02-22T21:29:25.251Z,99332.04
2023-02-22T21:31:54.112Z,99334.56
2023-02-22T21:34:21.981Z,99331.08
2023-02-22T21:36:51.952Z,99333.71
2023-02-22T21:39:19.245Z,99332.05
2023-02-22T21:41:49.342Z,99332.49
2023-02-22T21:44:18.577Z,99330.61
2023-02-22T21:46:49.960Z,99334.87
2023-02-22T21:49:21.960Z,99334.27
2023-02-22T21:51:51.222Z,99331.52
2023-02-22T21:54:21.059Z,99329.64
2023-02-22T21:56:49.317Z,99329.48
2023-02-22T21:59:20.002Z,99330.37
2023-02-22T22:01:50.779Z,99331.61
2023-02-22T22:04:27.900Z,99330.96
2023-02-22T22:06:57.636Z,99328.52
2023-02-22T22:09:31.988Z,99332.40
2023-02-22T22:12:04.379Z,99332.77
2023-02-22T22:14:33.490Z,99334.48
2023-02-22T22:17:02.772Z,99329.98
2023-02-22T22:19:38.757Z,99329.61
2023-02-22T22:22:07.508Z,99334.27
2023-02-22T22:24:34.827Z,99333.45
2023-02-22T22:27:06.072Z,99333.20
2023-02-22T22:29:33.832Z,99335.00
2023-02-22T22:32:02.175Z,99332.50
2023-02-22T22:34:30.151Z,99334.19
2023-02-22T22:36:57.551Z,99336.16
2023-02-22T22:39:26.680Z,99340.55
2023-02-22T22:41:54.078Z,99339.34
2023-02-22T22:44:24.896Z,99340.24
2023-02-22T22:46:54.664Z,99342.14
2023-02-22T22:49:24.584Z,99340.51
2023-02-22T22:51:52.472Z,99342.69
2023-02-22T22:54:19.445Z,99341.90
2023-02-22T22:56:46.416Z,99342.39
2023-02-22T22:59:13.576Z,99344.13
2023-02-22T23:01:46.379Z,99343.70
2023-02-22T23:04:16.460Z,99345.05
2023-02-22T23:06:47.281Z,99348.60
2023-02-22T23:09:19.020Z,99348.48
2023-02-22T23:11:50.103Z,99347.73
2023-02-22T23:14:20.463Z,99347.35
2023-02-22T23:16:49.527Z,99347.94
2023-02-22T23:19:18.781Z,99349.45
2023-02-22T23:21:47.966Z,99349.00
2023-02-22T23:24:18.774Z,99345.98
2023-02-22T23:26:50.129Z,99346.70
2023-02-22T23:29:19.479Z,99345.06
2023-02-22T23:31:47.807Z,99347.75
2023-02-22T23:34:17.272Z,99344.00
2023-02-22T23:36:44.145Z,99347.17
2023-02-22T23:39:12.477Z,99342.85
2023-02-22T23:41:40.335Z,99340.27
2023-02-22T23:44:07.880Z,99343.77
2023-02-22T23:46:36.304Z,99340.45
2023-02-22T23:49:05.333Z,99339.54
2023-02-22T23:51:38.870Z,99338.66
2023-02-22T23:54:08.693Z,99336.87
2023-02-22T23:56:36.704Z,99337.38
2023-02-22T23:59:09.012Z,99336.67
